sensor_id;sensor_type;location;lat;lon;timestamp;P1;durP1;ratioP1;P2;durP2;ratioP2
21927;SDS011;11128;51.096;17.190;2023-10-31T00:01:24;5.57;;;2.38;;
21927;SDS011;11128;51.096;17.190;2023-10-31T00:06:25;8.27;;;3.10;;
21927;SDS011;11128;51.096;17.190;2023-10-31T00:11:27;5.93;;;2.60;;
21927;SDS011;11128;51.096;17.190;2023-10-31T00:16:28;7.57;;;2.28;;
21927;SDS011;11128;51.096;17.190;2023-10-31T00:21:30;4.18;;;2.03;;
21927;SDS011;11128;51.096;17.190;2023-10-31T00:26:31;4.05;;;2.22;;
21927;SDS011;11128;51.096;17.190;2023-10-31T00:31:32;5.18;;;1.92;;
21927;SDS011;11128;51.096;17.190;2023-10-31T00:36:35;5.07;;;2.47;;
21927;SDS011;11128;51.096;17.190;2023-10-31T00:41:38;4.30;;;2.13;;
21927;SDS011;11128;51.096;17.190;2023-10-31T00:46:40;4.20;;;2.03;;
21927;SDS011;11128;51.096;17.190;2023-10-31T00:51:41;4.95;;;2.10;;
21927;SDS011;11128;51.096;17.190;2023-10-31T00:56:42;5.07;;;2.05;;
21927;SDS011;11128;51.096;17.190;2023-10-31T01:01:44;4.55;;;1.90;;
21927;SDS011;11128;51.096;17.190;2023-10-31T01:06:45;3.53;;;1.77;;
21927;SDS011;11128;51.096;17.190;2023-10-31T01:11:47;4.05;;;1.70;;
21927;SDS011;11128;51.096;17.190;2023-10-31T01:16:48;3.67;;;1.90;;
21927;SDS011;11128;51.096;17.190;2023-10-31T01:21:50;6.35;;;1.77;;
21927;SDS011;11128;51.096;17.190;2023-10-31T01:26:51;5.32;;;1.88;;
21927;SDS011;11128;51.096;17.190;2023-10-31T01:31:52;1.92;;;1.27;;
21927;SDS011;11128;51.096;17.190;2023-10-31T01:36:55;2.67;;;1.50;;
21927;SDS011;11128;51.096;17.190;2023-10-31T01:41:56;2.67;;;1.70;;
21927;SDS011;11128;51.096;17.190;2023-10-31T01:46:58;4.22;;;1.45;;
21927;SDS011;11128;51.096;17.190;2023-10-31T01:52:00;3.25;;;1.42;;
21927;SDS011;11128;51.096;17.190;2023-10-31T01:57:02;4.15;;;1.50;;
21927;SDS011;11128;51.096;17.190;2023-10-31T02:02:06;7.45;;;1.88;;
21927;SDS011;11128;51.096;17.190;2023-10-31T02:07:08;5.35;;;2.30;;
21927;SDS011;11128;51.096;17.190;2023-10-31T02:12:09;6.30;;;2.80;;
21927;SDS011;11128;51.096;17.190;2023-10-31T02:17:11;6.13;;;2.60;;
21927;SDS011;11128;51.096;17.190;2023-10-31T02:22:12;8.57;;;3.20;;
21927;SDS011;11128;51.096;17.190;2023-10-31T02:27:14;5.95;;;2.28;;
21927;SDS011;11128;51.096;17.190;2023-10-31T02:32:15;4.90;;;1.75;;
21927;SDS011;11128;51.096;17.190;2023-10-31T02:37:16;3.47;;;1.98;;
21927;SDS011;11128;51.096;17.190;2023-10-31T02:42:18;7.07;;;1.75;;
21927;SDS011;11128;51.096;17.190;2023-10-31T02:47:19;4.65;;;1.33;;
21927;SDS011;11128;51.096;17.190;2023-10-31T02:52:21;4.47;;;1.75;;
21927;SDS011;11128;51.096;17.190;2023-10-31T02:57:22;3.08;;;1.48;;
21927;SDS011;11128;51.096;17.190;2023-10-31T03:02:23;5.57;;;1.30;;
21927;SDS011;11128;51.096;17.190;2023-10-31T03:07:25;4.63;;;1.20;;
21927;SDS011;11128;51.096;17.190;2023-10-31T03:12:26;2.28;;;1.38;;
21927;SDS011;11128;51.096;17.190;2023-10-31T03:17:29;3.80;;;1.25;;
21927;SDS011;11128;51.096;17.190;2023-10-31T03:22:31;1.80;;;1.27;;
21927;SDS011;11128;51.096;17.190;2023-10-31T03:27:32;4.60;;;1.30;;
21927;SDS011;11128;51.096;17.190;2023-10-31T03:32:33;6.57;;;1.20;;
21927;SDS011;11128;51.096;17.190;2023-10-31T03:37:35;1.63;;;1.00;;
21927;SDS011;11128;51.096;17.190;2023-10-31T03:42:36;2.45;;;1.00;;
21927;SDS011;11128;51.096;17.190;2023-10-31T03:47:38;4.57;;;1.10;;
21927;SDS011;11128;51.096;17.190;2023-10-31T03:52:39;3.53;;;1.17;;
21927;SDS011;11128;51.096;17.190;2023-10-31T03:57:41;2.63;;;1.08;;
21927;SDS011;11128;51.096;17.190;2023-10-31T04:02:43;2.78;;;1.27;;
21927;SDS011;11128;51.096;17.190;2023-10-31T04:07:46;4.07;;;1.30;;
21927;SDS011;11128;51.096;17.190;2023-10-31T04:12:47;3.22;;;1.25;;
21927;SDS011;11128;51.096;17.190;2023-10-31T04:17:49;1.95;;;1.25;;
21927;SDS011;11128;51.096;17.190;2023-10-31T04:22:50;2.58;;;1.00;;
21927;SDS011;11128;51.096;17.190;2023-10-31T04:27:51;3.78;;;1.30;;
21927;SDS011;11128;51.096;17.190;2023-10-31T04:32:53;1.85;;;1.30;;
21927;SDS011;11128;51.096;17.190;2023-10-31T04:37:54;2.05;;;1.25;;
21927;SDS011;11128;51.096;17.190;2023-10-31T04:42:55;2.78;;;1.60;;
21927;SDS011;11128;51.096;17.190;2023-10-31T04:47:57;4.78;;;1.40;;
21927;SDS011;11128;51.096;17.190;2023-10-31T04:52:58;2.63;;;1.40;;
21927;SDS011;11128;51.096;17.190;2023-10-31T04:57:59;4.05;;;1.52;;
21927;SDS011;11128;51.096;17.190;2023-10-31T05:03:01;2.88;;;1.10;;
21927;SDS011;11128;51.096;17.190;2023-10-31T05:08:03;2.28;;;1.27;;
21927;SDS011;11128;51.096;17.190;2023-10-31T05:13:05;1.95;;;1.30;;
21927;SDS011;11128;51.096;17.190;2023-10-31T05:18:06;1.55;;;1.27;;
21927;SDS011;11128;51.096;17.190;2023-10-31T05:23:07;5.35;;;1.55;;
21927;SDS011;11128;51.096;17.190;2023-10-31T05:28:09;3.72;;;1.10;;
21927;SDS011;11128;51.096;17.190;2023-10-31T05:33:11;2.22;;;1.05;;
21927;SDS011;11128;51.096;17.190;2023-10-31T05:38:12;1.75;;;1.10;;
21927;SDS011;11128;51.096;17.190;2023-10-31T05:43:13;5.47;;;1.27;;
21927;SDS011;11128;51.096;17.190;2023-10-31T05:48:15;4.20;;;1.58;;
21927;SDS011;11128;51.096;17.190;2023-10-31T05:53:16;5.85;;;1.30;;
21927;SDS011;11128;51.096;17.190;2023-10-31T05:58:17;2.70;;;1.30;;
21927;SDS011;11128;51.096;17.190;2023-10-31T06:03:19;3.08;;;1.17;;
21927;SDS011;11128;51.096;17.190;2023-10-31T06:08:20;2.63;;;1.38;;
21927;SDS011;11128;51.096;17.190;2023-10-31T06:13:21;3.60;;;1.50;;
21927;SDS011;11128;51.096;17.190;2023-10-31T06:18:26;4.43;;;1.17;;
21927;SDS011;11128;51.096;17.190;2023-10-31T06:23:28;3.10;;;1.17;;
21927;SDS011;11128;51.096;17.190;2023-10-31T06:28:30;4.75;;;1.52;;
21927;SDS011;11128;51.096;17.190;2023-10-31T06:33:35;1.95;;;1.48;;
21927;SDS011;11128;51.096;17.190;2023-10-31T06:38:36;7.00;;;1.85;;
21927;SDS011;11128;51.096;17.190;2023-10-31T06:43:38;1.95;;;1.45;;
21927;SDS011;11128;51.096;17.190;2023-10-31T06:48:39;4.35;;;1.52;;
21927;SDS011;11128;51.096;17.190;2023-10-31T06:53:40;1.75;;;1.08;;
21927;SDS011;11128;51.096;17.190;2023-10-31T06:58:42;3.53;;;1.40;;
21927;SDS011;11128;51.096;17.190;2023-10-31T07:03:43;2.63;;;1.95;;
21927;SDS011;11128;51.096;17.190;2023-10-31T07:08:45;3.75;;;1.38;;
21927;SDS011;11128;51.096;17.190;2023-10-31T07:13:46;4.70;;;1.80;;
21927;SDS011;11128;51.096;17.190;2023-10-31T07:18:48;3.00;;;1.98;;
21927;SDS011;11128;51.096;17.190;2023-10-31T07:23:49;4.38;;;1.50;;
21927;SDS011;11128;51.096;17.190;2023-10-31T07:28:50;4.45;;;1.58;;
21927;SDS011;11128;51.096;17.190;2023-10-31T07:33:52;2.83;;;1.42;;
21927;SDS011;11128;51.096;17.190;2023-10-31T07:38:53;5.55;;;1.48;;
21927;SDS011;11128;51.096;17.190;2023-10-31T07:43:54;2.67;;;1.52;;
21927;SDS011;11128;51.096;17.190;2023-10-31T07:48:56;2.85;;;1.10;;
21927;SDS011;11128;51.096;17.190;2023-10-31T07:53:57;0.82;;;0.82;;
21927;SDS011;11128;51.096;17.190;2023-10-31T07:59:00;1.45;;;1.15;;
21927;SDS011;11128;51.096;17.190;2023-10-31T08:04:01;1.70;;;0.90;;
21927;SDS011;11128;51.096;17.190;2023-10-31T08:09:02;1.50;;;0.80;;
21927;SDS011;11128;51.096;17.190;2023-10-31T08:14:04;2.88;;;0.77;;
21927;SDS011;11128;51.096;17.190;2023-10-31T08:19:05;0.52;;;0.47;;
21927;SDS011;11128;51.096;17.190;2023-10-31T08:24:07;2.67;;;0.85;;
21927;SDS011;11128;51.096;17.190;2023-10-31T08:29:09;1.05;;;0.80;;
21927;SDS011;11128;51.096;17.190;2023-10-31T08:34:10;0.80;;;0.57;;
21927;SDS011;11128;51.096;17.190;2023-10-31T08:39:11;1.42;;;0.77;;
21927;SDS011;11128;51.096;17.190;2023-10-31T08:44:13;0.95;;;0.75;;
21927;SDS011;11128;51.096;17.190;2023-10-31T08:49:15;2.47;;;0.80;;
21927;SDS011;11128;51.096;17.190;2023-10-31T08:54:17;0.50;;;0.50;;
21927;SDS011;11128;51.096;17.190;2023-10-31T08:59:18;1.20;;;0.70;;
21927;SDS011;11128;51.096;17.190;2023-10-31T09:04:19;1.42;;;0.70;;
21927;SDS011;11128;51.096;17.190;2023-10-31T09:09:21;1.35;;;0.88;;
21927;SDS011;11128;51.096;17.190;2023-10-31T09:14:22;1.30;;;0.63;;
21927;SDS011;11128;51.096;17.190;2023-10-31T09:19:24;0.82;;;0.77;;
21927;SDS011;11128;51.096;17.190;2023-10-31T09:24:25;1.35;;;0.80;;
21927;SDS011;11128;51.096;17.190;2023-10-31T09:29:27;0.75;;;0.75;;
21927;SDS011;11128;51.096;17.190;2023-10-31T09:34:28;0.65;;;0.65;;
21927;SDS011;11128;51.096;17.190;2023-10-31T09:39:30;1.15;;;0.65;;
21927;SDS011;11128;51.096;17.190;2023-10-31T09:44:31;1.08;;;0.57;;
21927;SDS011;11128;51.096;17.190;2023-10-31T09:49:33;0.60;;;0.60;;
21927;SDS011;11128;51.096;17.190;2023-10-31T09:54:36;1.02;;;0.80;;
21927;SDS011;11128;51.096;17.190;2023-10-31T09:59:39;0.88;;;0.70;;
21927;SDS011;11128;51.096;17.190;2023-10-31T10:04:40;0.60;;;0.60;;
21927;SDS011;11128;51.096;17.190;2023-10-31T10:09:42;0.82;;;0.68;;
21927;SDS011;11128;51.096;17.190;2023-10-31T10:14:45;1.55;;;0.90;;
21927;SDS011;11128;51.096;17.190;2023-10-31T10:19:47;0.93;;;0.70;;
21927;SDS011;11128;51.096;17.190;2023-10-31T10:25:08;0.90;;;0.60;;
21927;SDS011;11128;51.096;17.190;2023-10-31T10:30:13;1.38;;;0.70;;
21927;SDS011;11128;51.096;17.190;2023-10-31T10:35:16;1.05;;;0.60;;
21927;SDS011;11128;51.096;17.190;2023-10-31T10:40:17;0.98;;;0.70;;
21927;SDS011;11128;51.096;17.190;2023-10-31T10:45:19;1.38;;;0.80;;
21927;SDS011;11128;51.096;17.190;2023-10-31T10:50:21;1.63;;;1.02;;
21927;SDS011;11128;51.096;17.190;2023-10-31T10:55:30;1.85;;;0.90;;
21927;SDS011;11128;51.096;17.190;2023-10-31T11:00:37;0.93;;;0.30;;
21927;SDS011;11128;51.096;17.190;2023-10-31T11:05:41;1.30;;;0.55;;
21927;SDS011;11128;51.096;17.190;2023-10-31T11:10:44;0.57;;;0.40;;
21927;SDS011;11128;51.096;17.190;2023-10-31T11:15:47;0.40;;;0.35;;
21927;SDS011;11128;51.096;17.190;2023-10-31T11:20:55;1.10;;;0.40;;
21927;SDS011;11128;51.096;17.190;2023-10-31T11:25:57;0.60;;;0.50;;
21927;SDS011;11128;51.096;17.190;2023-10-31T11:31:00;1.20;;;0.30;;
21927;SDS011;11128;51.096;17.190;2023-10-31T11:36:03;0.43;;;0.40;;
21927;SDS011;11128;51.096;17.190;2023-10-31T11:41:05;0.52;;;0.50;;
21927;SDS011;11128;51.096;17.190;2023-10-31T11:51:41;0.40;;;0.40;;
21927;SDS011;11128;51.096;17.190;2023-10-31T11:56:50;0.40;;;0.40;;
21927;SDS011;11128;51.096;17.190;2023-10-31T12:01:53;1.13;;;0.50;;
21927;SDS011;11128;51.096;17.190;2023-10-31T12:06:58;1.60;;;0.60;;
21927;SDS011;11128;51.096;17.190;2023-10-31T12:12:01;0.40;;;0.40;;
21927;SDS011;11128;51.096;17.190;2023-10-31T12:17:06;0.98;;;0.40;;
21927;SDS011;11128;51.096;17.190;2023-10-31T12:22:14;0.40;;;0.40;;
21927;SDS011;11128;51.096;17.190;2023-10-31T12:27:16;0.68;;;0.55;;
21927;SDS011;11128;51.096;17.190;2023-10-31T12:32:17;0.70;;;0.50;;
21927;SDS011;11128;51.096;17.190;2023-10-31T12:37:19;0.98;;;0.50;;
21927;SDS011;11128;51.096;17.190;2023-10-31T12:42:20;1.17;;;0.43;;
21927;SDS011;11128;51.096;17.190;2023-10-31T12:47:22;0.30;;;0.30;;
21927;SDS011;11128;51.096;17.190;2023-10-31T12:52:24;0.93;;;0.45;;
21927;SDS011;11128;51.096;17.190;2023-10-31T12:57:26;0.75;;;0.40;;
21927;SDS011;11128;51.096;17.190;2023-10-31T13:02:29;0.63;;;0.20;;
21927;SDS011;11128;51.096;17.190;2023-10-31T13:07:30;0.60;;;0.28;;
21927;SDS011;11128;51.096;17.190;2023-10-31T13:12:32;1.13;;;0.40;;
21927;SDS011;11128;51.096;17.190;2023-10-31T13:17:34;0.20;;;0.20;;
21927;SDS011;11128;51.096;17.190;2023-10-31T13:22:38;0.43;;;0.30;;
21927;SDS011;11128;51.096;17.190;2023-10-31T13:27:42;0.38;;;0.38;;
21927;SDS011;11128;51.096;17.190;2023-10-31T13:32:44;0.20;;;0.20;;
21927;SDS011;11128;51.096;17.190;2023-10-31T13:37:45;0.82;;;0.30;;
21927;SDS011;11128;51.096;17.190;2023-10-31T13:42:47;0.32;;;0.20;;
21927;SDS011;11128;51.096;17.190;2023-10-31T13:47:48;0.40;;;0.40;;
21927;SDS011;11128;51.096;17.190;2023-10-31T13:52:50;3.05;;;1.75;;
21927;SDS011;11128;51.096;17.190;2023-10-31T13:57:53;0.47;;;0.32;;
21927;SDS011;11128;51.096;17.190;2023-10-31T14:02:55;0.70;;;0.43;;
21927;SDS011;11128;51.096;17.190;2023-10-31T14:07:56;0.60;;;0.30;;
21927;SDS011;11128;51.096;17.190;2023-10-31T14:12:58;0.45;;;0.40;;
21927;SDS011;11128;51.096;17.190;2023-10-31T14:17:59;0.80;;;0.40;;
21927;SDS011;11128;51.096;17.190;2023-10-31T14:23:01;0.93;;;0.38;;
21927;SDS011;11128;51.096;17.190;2023-10-31T14:28:02;1.20;;;0.40;;
21927;SDS011;11128;51.096;17.190;2023-10-31T14:33:05;2.80;;;0.68;;
21927;SDS011;11128;51.096;17.190;2023-10-31T14:38:09;0.40;;;0.40;;
21927;SDS011;11128;51.096;17.190;2023-10-31T14:43:11;0.47;;;0.47;;
21927;SDS011;11128;51.096;17.190;2023-10-31T14:48:20;0.75;;;0.40;;
21927;SDS011;11128;51.096;17.190;2023-10-31T14:53:22;0.57;;;0.50;;
21927;SDS011;11128;51.096;17.190;2023-10-31T14:58:23;0.43;;;0.32;;
21927;SDS011;11128;51.096;17.190;2023-10-31T15:03:25;2.47;;;0.40;;
21927;SDS011;11128;51.096;17.190;2023-10-31T15:08:26;0.75;;;0.40;;
21927;SDS011;11128;51.096;17.190;2023-10-31T15:13:28;0.77;;;0.50;;
21927;SDS011;11128;51.096;17.190;2023-10-31T15:18:29;1.25;;;0.60;;
21927;SDS011;11128;51.096;17.190;2023-10-31T15:23:31;1.05;;;0.60;;
21927;SDS011;11128;51.096;17.190;2023-10-31T15:28:32;1.52;;;0.60;;
21927;SDS011;11128;51.096;17.190;2023-10-31T15:33:34;5.25;;;0.55;;
21927;SDS011;11128;51.096;17.190;2023-10-31T15:38:35;1.08;;;0.50;;
21927;SDS011;11128;51.096;17.190;2023-10-31T15:43:37;0.98;;;0.50;;
21927;SDS011;11128;51.096;17.190;2023-10-31T15:48:38;0.80;;;0.63;;
21927;SDS011;11128;51.096;17.190;2023-10-31T15:53:40;1.63;;;1.20;;
21927;SDS011;11128;51.096;17.190;2023-10-31T15:58:41;1.23;;;0.57;;
21927;SDS011;11128;51.096;17.190;2023-10-31T16:03:43;0.45;;;0.40;;
21927;SDS011;11128;51.096;17.190;2023-10-31T16:08:45;1.20;;;0.77;;
21927;SDS011;11128;51.096;17.190;2023-10-31T16:13:47;1.17;;;0.70;;
21927;SDS011;11128;51.096;17.190;2023-10-31T16:18:49;0.52;;;0.50;;
21927;SDS011;11128;51.096;17.190;2023-10-31T16:23:50;1.13;;;0.63;;
21927;SDS011;11128;51.096;17.190;2023-10-31T16:28:51;0.75;;;0.70;;
21927;SDS011;11128;51.096;17.190;2023-10-31T16:33:53;0.93;;;0.50;;
21927;SDS011;11128;51.096;17.190;2023-10-31T16:38:54;0.40;;;0.40;;
21927;SDS011;11128;51.096;17.190;2023-10-31T16:43:56;0.55;;;0.50;;
21927;SDS011;11128;51.096;17.190;2023-10-31T16:48:57;1.38;;;0.52;;
21927;SDS011;11128;51.096;17.190;2023-10-31T16:53:58;4.28;;;0.75;;
21927;SDS011;11128;51.096;17.190;2023-10-31T16:59:00;0.75;;;0.50;;
21927;SDS011;11128;51.096;17.190;2023-10-31T17:04:01;1.45;;;1.10;;
21927;SDS011;11128;51.096;17.190;2023-10-31T17:09:02;2.40;;;1.30;;
21927;SDS011;11128;51.096;17.190;2023-10-31T17:14:04;3.22;;;1.73;;
21927;SDS011;11128;51.096;17.190;2023-10-31T17:19:05;5.43;;;1.95;;
21927;SDS011;11128;51.096;17.190;2023-10-31T17:24:07;4.05;;;1.77;;
21927;SDS011;11128;51.096;17.190;2023-10-31T17:29:09;3.33;;;1.45;;
21927;SDS011;11128;51.096;17.190;2023-10-31T17:34:10;2.85;;;1.67;;
21927;SDS011;11128;51.096;17.190;2023-10-31T17:39:11;4.20;;;1.60;;
21927;SDS011;11128;51.096;17.190;2023-10-31T17:44:13;4.20;;;1.95;;
21927;SDS011;11128;51.096;17.190;2023-10-31T17:49:15;3.05;;;1.80;;
21927;SDS011;11128;51.096;17.190;2023-10-31T17:54:18;8.20;;;2.88;;
21927;SDS011;11128;51.096;17.190;2023-10-31T17:59:20;3.70;;;2.10;;
21927;SDS011;11128;51.096;17.190;2023-10-31T18:04:24;4.10;;;1.40;;
21927;SDS011;11128;51.096;17.190;2023-10-31T18:09:38;1.75;;;0.82;;
21927;SDS011;11128;51.096;17.190;2023-10-31T18:14:39;1.25;;;0.77;;
21927;SDS011;11128;51.096;17.190;2023-10-31T18:19:41;2.22;;;1.05;;
21927;SDS011;11128;51.096;17.190;2023-10-31T18:24:42;1.65;;;1.00;;
21927;SDS011;11128;51.096;17.190;2023-10-31T18:29:44;2.97;;;1.00;;
21927;SDS011;11128;51.096;17.190;2023-10-31T18:34:46;1.13;;;0.75;;
21927;SDS011;11128;51.096;17.190;2023-10-31T18:39:47;1.10;;;1.00;;
21927;SDS011;11128;51.096;17.190;2023-10-31T18:44:48;0.75;;;0.57;;
21927;SDS011;11128;51.096;17.190;2023-10-31T18:49:50;2.70;;;2.30;;
21927;SDS011;11128;51.096;17.190;2023-10-31T18:54:51;3.10;;;1.50;;
21927;SDS011;11128;51.096;17.190;2023-10-31T18:59:54;1.98;;;1.63;;
21927;SDS011;11128;51.096;17.190;2023-10-31T19:04:57;3.08;;;1.83;;
21927;SDS011;11128;51.096;17.190;2023-10-31T19:09:58;3.08;;;1.73;;
21927;SDS011;11128;51.096;17.190;2023-10-31T19:15:00;3.92;;;1.40;;
21927;SDS011;11128;51.096;17.190;2023-10-31T19:20:01;5.63;;;3.40;;
21927;SDS011;11128;51.096;17.190;2023-10-31T19:25:03;1.00;;;0.73;;
21927;SDS011;11128;51.096;17.190;2023-10-31T19:30:04;1.75;;;0.93;;
21927;SDS011;11128;51.096;17.190;2023-10-31T19:35:06;1.50;;;0.90;;
21927;SDS011;11128;51.096;17.190;2023-10-31T19:40:14;1.58;;;0.80;;
21927;SDS011;11128;51.096;17.190;2023-10-31T19:45:16;1.13;;;0.77;;
21927;SDS011;11128;51.096;17.190;2023-10-31T19:50:18;5.15;;;2.45;;
21927;SDS011;11128;51.096;17.190;2023-10-31T19:55:21;1.13;;;0.93;;
21927;SDS011;11128;51.096;17.190;2023-10-31T20:00:23;1.98;;;1.13;;
21927;SDS011;11128;51.096;17.190;2023-10-31T20:05:27;1.85;;;1.13;;
21927;SDS011;11128;51.096;17.190;2023-10-31T20:10:29;1.05;;;0.90;;
21927;SDS011;11128;51.096;17.190;2023-10-31T20:15:31;1.25;;;0.90;;
21927;SDS011;11128;51.096;17.190;2023-10-31T20:20:33;2.20;;;1.05;;
21927;SDS011;11128;51.096;17.190;2023-10-31T20:25:35;1.40;;;0.88;;
21927;SDS011;11128;51.096;17.190;2023-10-31T20:30:37;1.88;;;0.82;;
21927;SDS011;11128;51.096;17.190;2023-10-31T20:35:39;0.98;;;0.75;;
21927;SDS011;11128;51.096;17.190;2023-10-31T20:40:41;1.55;;;0.95;;
21927;SDS011;11128;51.096;17.190;2023-10-31T20:45:43;3.13;;;1.40;;
21927;SDS011;11128;51.096;17.190;2023-10-31T20:50:45;2.47;;;1.10;;
21927;SDS011;11128;51.096;17.190;2023-10-31T20:55:46;2.17;;;1.17;;
21927;SDS011;11128;51.096;17.190;2023-10-31T21:00:47;2.72;;;1.80;;
21927;SDS011;11128;51.096;17.190;2023-10-31T21:05:49;2.28;;;1.33;;
21927;SDS011;11128;51.096;17.190;2023-10-31T21:10:50;3.28;;;1.48;;
21927;SDS011;11128;51.096;17.190;2023-10-31T21:15:52;4.32;;;1.65;;
21927;SDS011;11128;51.096;17.190;2023-10-31T21:20:54;2.72;;;1.60;;
21927;SDS011;11128;51.096;17.190;2023-10-31T21:25:55;4.05;;;0.82;;
21927;SDS011;11128;51.096;17.190;2023-10-31T21:30:57;2.95;;;1.10;;
21927;SDS011;11128;51.096;17.190;2023-10-31T21:35:59;1.25;;;0.80;;
21927;SDS011;11128;51.096;17.190;2023-10-31T21:41:00;1.45;;;0.93;;
21927;SDS011;11128;51.096;17.190;2023-10-31T21:46:01;1.10;;;0.85;;
21927;SDS011;11128;51.096;17.190;2023-10-31T21:51:04;2.00;;;0.75;;
21927;SDS011;11128;51.096;17.190;2023-10-31T21:56:05;1.63;;;1.00;;
21927;SDS011;11128;51.096;17.190;2023-10-31T22:01:07;1.17;;;0.80;;
21927;SDS011;11128;51.096;17.190;2023-10-31T22:06:08;2.25;;;0.93;;
21927;SDS011;11128;51.096;17.190;2023-10-31T22:11:10;2.80;;;1.10;;
21927;SDS011;11128;51.096;17.190;2023-10-31T22:16:12;1.25;;;0.90;;
21927;SDS011;11128;51.096;17.190;2023-10-31T22:21:13;1.67;;;1.17;;
21927;SDS011;11128;51.096;17.190;2023-10-31T22:26:15;1.75;;;1.20;;
21927;SDS011;11128;51.096;17.190;2023-10-31T22:31:16;1.02;;;0.82;;
21927;SDS011;11128;51.096;17.190;2023-10-31T22:36:17;1.05;;;0.93;;
21927;SDS011;11128;51.096;17.190;2023-10-31T22:41:19;1.10;;;1.00;;
21927;SDS011;11128;51.096;17.190;2023-10-31T22:46:20;1.55;;;0.90;;
21927;SDS011;11128;51.096;17.190;2023-10-31T22:51:22;1.63;;;0.90;;
21927;SDS011;11128;51.096;17.190;2023-10-31T22:56:23;1.95;;;1.08;;
21927;SDS011;11128;51.096;17.190;2023-10-31T23:01:24;2.53;;;1.15;;
21927;SDS011;11128;51.096;17.190;2023-10-31T23:06:26;1.02;;;0.98;;
21927;SDS011;11128;51.096;17.190;2023-10-31T23:11:28;2.50;;;1.38;;
21927;SDS011;11128;51.096;17.190;2023-10-31T23:16:30;1.42;;;1.02;;
21927;SDS011;11128;51.096;17.190;2023-10-31T23:21:31;5.22;;;1.10;;
21927;SDS011;11128;51.096;17.190;2023-10-31T23:26:32;1.73;;;1.17;;
21927;SDS011;11128;51.096;17.190;2023-10-31T23:31:33;1.98;;;0.98;;
21927;SDS011;11128;51.096;17.190;2023-10-31T23:36:36;0.93;;;0.80;;
21927;SDS011;11128;51.096;17.190;2023-10-31T23:41:37;2.20;;;0.93;;
21927;SDS011;11128;51.096;17.190;2023-10-31T23:46:38;3.08;;;1.00;;
21927;SDS011;11128;51.096;17.190;2023-10-31T23:51:40;2.20;;;1.33;;
21927;SDS011;11128;51.096;17.190;2023-10-31T23:56:41;2.42;;;1.00;;
